sensor_id;sensor_type;location;lat;lon;timestamp;pressure;altitude;pressure_sealevel;temperature;humidity
67980;BME280;54760;47.490;19.030;2023-04-03T00:01:01;99992.31;;;7.79;57.83
67980;BME280;54760;47.490;19.030;2023-04-03T00:03:27;99983.88;;;7.63;58.13
67980;BME280;54760;47.490;19.030;2023-04-03T00:05:53;99995.09;;;7.75;57.64
67980;BME280;54760;47.490;19.030;2023-04-03T00:08:18;99990.69;;;7.89;57.09
67980;BME280;54760;47.490;19.030;2023-04-03T00:10:44;99998.28;;;7.67;57.39
67980;BME280;54760;47.490;19.030;2023-04-03T00:13:09;99987.41;;;7.60;57.55
67980;BME280;54760;47.490;19.030;2023-04-03T00:15:35;99990.81;;;7.74;57.21
67980;BME280;54760;47.490;19.030;2023-04-03T00:18:01;99987.59;;;7.87;56.67
67980;BME280;54760;47.490;19.030;2023-04-03T00:20:27;99992.31;;;7.79;56.98
67980;BME280;54760;47.490;19.030;2023-04-03T00:22:53;99989.06;;;7.47;57.52
67980;BME280;54760;47.490;19.030;2023-04-03T00:25:19;99995.56;;;7.63;56.96
67980;BME280;54760;47.490;19.030;2023-04-03T00:27:44;99997.91;;;7.61;56.98
67980;BME280;54760;47.490;19.030;2023-04-03T00:30:14;99998.38;;;7.49;57.85
67980;BME280;54760;47.490;19.030;2023-04-03T00:32:40;100005.38;;;7.50;57.65
67980;BME280;54760;47.490;19.030;2023-04-03T00:35:06;100001.53;;;7.48;57.54
67980;BME280;54760;47.490;19.030;2023-04-03T00:37:32;99996.91;;;7.37;57.89
67980;BME280;54760;47.490;19.030;2023-04-03T00:39:57;100008.84;;;7.54;57.33
67980;BME280;54760;47.490;19.030;2023-04-03T00:42:23;99999.16;;;7.50;57.34
67980;BME280;54760;47.490;19.030;2023-04-03T00:47:16;100006.47;;;7.60;56.97
67980;BME280;54760;47.490;19.030;2023-04-03T00:49:43;100007.38;;;7.46;57.05
67980;BME280;54760;47.490;19.030;2023-04-03T00:52:12;100003.09;;;7.45;56.99
67980;BME280;54760;47.490;19.030;2023-04-03T00:54:40;100002.25;;;7.55;56.81
67980;BME280;54760;47.490;19.030;2023-04-03T00:57:07;100001.50;;;7.51;57.19
67980;BME280;54760;47.490;19.030;2023-04-03T00:59:35;100002.19;;;7.62;56.68
67980;BME280;54760;47.490;19.030;2023-04-03T01:02:02;100013.91;;;7.56;56.44
67980;BME280;54760;47.490;19.030;2023-04-03T01:04:32;100005.09;;;7.34;57.36
67980;BME280;54760;47.490;19.030;2023-04-03T01:07:02;100001.84;;;7.53;56.53
67980;BME280;54760;47.490;19.030;2023-04-03T01:09:29;99997.62;;;7.45;56.96
67980;BME280;54760;47.490;19.030;2023-04-03T01:12:25;100004.66;;;7.43;56.77
67980;BME280;54760;47.490;19.030;2023-04-03T01:15:05;100004.25;;;7.44;56.34
67980;BME280;54760;47.490;19.030;2023-04-03T01:17:47;100006.53;;;7.53;56.12
67980;BME280;54760;47.490;19.030;2023-04-03T01:28:04;99992.28;;;7.31;56.07
67980;BME280;54760;47.490;19.030;2023-04-03T01:30:33;100000.94;;;7.12;56.53
67980;BME280;54760;47.490;19.030;2023-04-03T01:32:59;100008.34;;;7.11;56.38
67980;BME280;54760;47.490;19.030;2023-04-03T01:35:25;100001.72;;;7.09;56.31
67980;BME280;54760;47.490;19.030;2023-04-03T01:37:50;100002.50;;;7.13;56.63
67980;BME280;54760;47.490;19.030;2023-04-03T01:40:16;99996.34;;;7.02;56.65
67980;BME280;54760;47.490;19.030;2023-04-03T01:42:42;100003.34;;;6.95;56.62
67980;BME280;54760;47.490;19.030;2023-04-03T01:45:08;100002.13;;;7.11;56.34
67980;BME280;54760;47.490;19.030;2023-04-03T01:47:33;100011.13;;;6.97;56.66
67980;BME280;54760;47.490;19.030;2023-04-03T01:49:59;100015.03;;;6.96;56.54
67980;BME280;54760;47.490;19.030;2023-04-03T01:52:24;100019.28;;;7.01;56.46
67980;BME280;54760;47.490;19.030;2023-04-03T01:54:50;100024.69;;;7.08;56.29
67980;BME280;54760;47.490;19.030;2023-04-03T01:57:15;100026.25;;;7.05;56.26
67980;BME280;54760;47.490;19.030;2023-04-03T01:59:41;100024.38;;;6.91;56.96
67980;BME280;54760;47.490;19.030;2023-04-03T02:02:07;100026.69;;;6.96;56.68
67980;BME280;54760;47.490;19.030;2023-04-03T02:04:32;100025.09;;;6.99;56.18
67980;BME280;54760;47.490;19.030;2023-04-03T02:06:57;100031.38;;;6.92;56.47
67980;BME280;54760;47.490;19.030;2023-04-03T02:09:23;100026.28;;;7.02;56.12
67980;BME280;54760;47.490;19.030;2023-04-03T02:11:48;100027.50;;;6.86;56.54
67980;BME280;54760;47.490;19.030;2023-04-03T02:14:14;100030.31;;;6.62;56.86
67980;BME280;54760;47.490;19.030;2023-04-03T02:16:39;100027.47;;;6.97;56.22
67980;BME280;54760;47.490;19.030;2023-04-03T02:19:06;100028.25;;;6.94;56.19
67980;BME280;54760;47.490;19.030;2023-04-03T02:21:31;100037.59;;;6.89;56.36
67980;BME280;54760;47.490;19.030;2023-04-03T02:23:57;100028.25;;;6.94;56.26
67980;BME280;54760;47.490;19.030;2023-04-03T02:26:22;100033.69;;;6.90;56.19
67980;BME280;54760;47.490;19.030;2023-04-03T02:28:48;100035.66;;;6.93;56.35
67980;BME280;54760;47.490;19.030;2023-04-03T02:31:13;100031.38;;;6.92;56.03
67980;BME280;54760;47.490;19.030;2023-04-03T02:33:39;100031.38;;;6.92;56.03
67980;BME280;54760;47.490;19.030;2023-04-03T02:36:06;100031.00;;;6.87;56.06
67980;BME280;54760;47.490;19.030;2023-04-03T02:38:32;100035.69;;;6.83;55.87
67980;BME280;54760;47.490;19.030;2023-04-03T02:41:15;100034.59;;;6.59;56.96
67980;BME280;54760;47.490;19.030;2023-04-03T02:43:41;100029.50;;;6.72;56.64
67980;BME280;54760;47.490;19.030;2023-04-03T02:46:06;100032.22;;;6.68;56.69
67980;BME280;54760;47.490;19.030;2023-04-03T02:48:32;100032.97;;;6.79;56.20
67980;BME280;54760;47.490;19.030;2023-04-03T02:50:58;100033.81;;;6.62;56.57
67980;BME280;54760;47.490;19.030;2023-04-03T02:53:23;100027.94;;;6.74;56.39
67980;BME280;54760;47.490;19.030;2023-04-03T02:55:49;100029.88;;;6.77;56.58
67980;BME280;54760;47.490;19.030;2023-04-03T02:58:14;100038.84;;;6.74;56.67
67980;BME280;54760;47.490;19.030;2023-04-03T03:00:40;100034.94;;;6.65;56.68
67980;BME280;54760;47.490;19.030;2023-04-03T03:03:06;100027.59;;;6.51;57.15
67980;BME280;54760;47.490;19.030;2023-04-03T03:05:31;100035.78;;;6.47;57.53
67980;BME280;54760;47.490;19.030;2023-04-03T03:07:57;100029.09;;;6.70;56.95
67980;BME280;54760;47.490;19.030;2023-04-03T03:10:23;100040.34;;;6.75;56.63
67980;BME280;54760;47.490;19.030;2023-04-03T03:12:49;100040.44;;;6.47;57.17
67980;BME280;54760;47.490;19.030;2023-04-03T03:15:14;100037.31;;;6.59;56.92
67980;BME280;54760;47.490;19.030;2023-04-03T03:17:42;100040.81;;;6.56;57.42
67980;BME280;54760;47.490;19.030;2023-04-03T03:20:08;100043.87;;;6.72;56.60
67980;BME280;54760;47.490;19.030;2023-04-03T03:22:34;100046.63;;;6.58;56.97
67980;BME280;54760;47.490;19.030;2023-04-03T03:25:00;100044.72;;;6.44;57.38
67980;BME280;54760;47.490;19.030;2023-04-03T03:27:27;100049.38;;;6.44;57.17
67980;BME280;54760;47.490;19.030;2023-04-03T03:29:52;100056.00;;;6.43;57.18
67980;BME280;54760;47.490;19.030;2023-04-03T03:32:18;100050.13;;;6.51;57.08
67980;BME280;54760;47.490;19.030;2023-04-03T03:34:43;100048.97;;;6.63;56.77
67980;BME280;54760;47.490;19.030;2023-04-03T03:37:09;100054.34;;;6.77;56.53
67980;BME280;54760;47.490;19.030;2023-04-03T03:39:34;100053.53;;;6.87;56.03
67980;BME280;54760;47.490;19.030;2023-04-03T03:42:00;100054.03;;;6.54;56.80
67980;BME280;54760;47.490;19.030;2023-04-03T03:44:25;100048.91;;;6.70;56.48
67980;BME280;54760;47.490;19.030;2023-04-03T03:46:51;100052.41;;;6.78;56.25
67980;BME280;54760;47.490;19.030;2023-04-03T03:49:16;100052.50;;;6.39;57.65
67980;BME280;54760;47.490;19.030;2023-04-03T03:51:42;100050.50;;;6.61;56.98
67980;BME280;54760;47.490;19.030;2023-04-03T03:54:07;100047.41;;;6.55;57.09
67980;BME280;54760;47.490;19.030;2023-04-03T03:56:33;100059.47;;;6.47;57.36
67980;BME280;54760;47.490;19.030;2023-04-03T03:58:58;100057.16;;;6.28;57.85
67980;BME280;54760;47.490;19.030;2023-04-03T04:01:24;100054.84;;;6.26;57.73
67980;BME280;54760;47.490;19.030;2023-04-03T04:03:50;100053.28;;;6.43;57.17
67980;BME280;54760;47.490;19.030;2023-04-03T04:06:16;100051.72;;;6.28;57.84
67980;BME280;54760;47.490;19.030;2023-04-03T04:08:42;100044.72;;;6.44;57.51
67980;BME280;54760;47.490;19.030;2023-04-03T04:11:08;100041.25;;;6.33;57.71
67980;BME280;54760;47.490;19.030;2023-04-03T04:13:34;100047.84;;;6.32;57.61
67980;BME280;54760;47.490;19.030;2023-04-03T04:16:01;100043.94;;;6.37;57.80
67980;BME280;54760;47.490;19.030;2023-04-03T04:18:27;100036.13;;;6.60;57.53
67980;BME280;54760;47.490;19.030;2023-04-03T04:20:52;100046.63;;;6.58;57.47
67980;BME280;54760;47.490;19.030;2023-04-03T04:23:18;100047.81;;;6.50;57.12
67980;BME280;54760;47.490;19.030;2023-04-03T04:25:48;100059.09;;;6.41;57.57
67980;BME280;54760;47.490;19.030;2023-04-03T04:28:14;100062.19;;;6.36;57.57
67980;BME280;54760;47.490;19.030;2023-04-03T04:30:40;100064.88;;;6.61;56.49
67980;BME280;54760;47.490;19.030;2023-04-03T04:33:08;100064.56;;;6.24;57.61
67980;BME280;54760;47.490;19.030;2023-04-03T04:35:34;100071.13;;;6.51;57.08
67980;BME280;54760;47.490;19.030;2023-04-03T04:38:00;100076.56;;;6.37;57.37
67980;BME280;54760;47.490;19.030;2023-04-03T04:40:26;100062.22;;;6.26;57.54
67980;BME280;54760;47.490;19.030;2023-04-03T04:42:51;100064.94;;;6.43;57.31
67980;BME280;54760;47.490;19.030;2023-04-03T04:45:17;100075.81;;;6.12;57.85
67980;BME280;54760;47.490;19.030;2023-04-03T04:47:42;100070.38;;;6.04;58.73
67980;BME280;54760;47.490;19.030;2023-04-03T04:50:08;100075.81;;;6.04;58.37
67980;BME280;54760;47.490;19.030;2023-04-03T04:52:34;100074.66;;;5.98;58.77
67980;BME280;54760;47.490;19.030;2023-04-03T04:54:59;100076.56;;;6.37;57.93
67980;BME280;54760;47.490;19.030;2023-04-03T04:57:25;100077.34;;;6.37;57.55
67980;BME280;54760;47.490;19.030;2023-04-03T04:59:51;100088.22;;;6.27;58.30
67980;BME280;54760;47.490;19.030;2023-04-03T05:02:16;100087.81;;;6.46;57.51
67980;BME280;54760;47.490;19.030;2023-04-03T05:04:42;100089.03;;;6.24;58.66
67980;BME280;54760;47.490;19.030;2023-04-03T05:07:07;100086.31;;;6.09;58.90
67980;BME280;54760;47.490;19.030;2023-04-03T05:09:33;100087.84;;;5.89;59.89
67980;BME280;54760;47.490;19.030;2023-04-03T05:11:58;100084.37;;;6.24;58.68
67980;BME280;54760;47.490;19.030;2023-04-03T05:14:23;100081.25;;;6.04;59.42
67980;BME280;54760;47.490;19.030;2023-04-03T05:16:49;100092.13;;;6.26;58.61
67980;BME280;54760;47.490;19.030;2023-04-03T05:19:18;100089.00;;;6.38;58.01
67980;BME280;54760;47.490;19.030;2023-04-03T05:21:44;100089.03;;;6.34;57.80
67980;BME280;54760;47.490;19.030;2023-04-03T05:24:09;100101.03;;;6.37;58.23
67980;BME280;54760;47.490;19.030;2023-04-03T05:26:34;100092.88;;;6.37;58.46
67980;BME280;54760;47.490;19.030;2023-04-03T05:29:00;100101.47;;;6.25;58.87
67980;BME280;54760;47.490;19.030;2023-04-03T05:31:26;100092.50;;;6.21;58.87
67980;BME280;54760;47.490;19.030;2023-04-03T05:33:54;100098.72;;;6.32;58.49
67980;BME280;54760;47.490;19.030;2023-04-03T05:36:20;100095.63;;;6.26;58.62
67980;BME280;54760;47.490;19.030;2023-04-03T05:38:45;100096.00;;;6.28;58.60
67980;BME280;54760;47.490;19.030;2023-04-03T05:41:11;100089.78;;;6.31;58.61
67980;BME280;54760;47.490;19.030;2023-04-03T05:43:37;100088.59;;;6.46;58.02
67980;BME280;54760;47.490;19.030;2023-04-03T05:46:06;100081.81;;;7.15;56.37
67980;BME280;54760;47.490;19.030;2023-04-03T05:48:33;100079.69;;;7.54;55.22
67980;BME280;54760;47.490;19.030;2023-04-03T05:50:59;100081.22;;;8.14;53.17
67980;BME280;54760;47.490;19.030;2023-04-03T05:53:27;100074.41;;;9.72;49.00
67980;BME280;54760;47.490;19.030;2023-04-03T05:55:53;100076.44;;;9.91;47.50
67980;BME280;54760;47.490;19.030;2023-04-03T05:58:19;100082.03;;;8.55;50.66
67980;BME280;54760;47.490;19.030;2023-04-03T06:00:44;100085.22;;;7.99;52.43
67980;BME280;54760;47.490;19.030;2023-04-03T06:03:10;100092.88;;;9.00;50.25
67980;BME280;54760;47.490;19.030;2023-04-03T06:05:36;100097.50;;;8.69;50.07
67980;BME280;54760;47.490;19.030;2023-04-03T06:08:01;100096.69;;;8.31;51.64
67980;BME280;54760;47.490;19.030;2023-04-03T06:10:28;100100.88;;;8.80;50.55
67980;BME280;54760;47.490;19.030;2023-04-03T06:12:53;100102.69;;;9.58;48.78
67980;BME280;54760;47.490;19.030;2023-04-03T06:15:19;100095.41;;;10.52;45.81
67980;BME280;54760;47.490;19.030;2023-04-03T06:17:45;100091.91;;;10.71;44.89
67980;BME280;54760;47.490;19.030;2023-04-03T06:20:11;100094.63;;;11.69;43.30
67980;BME280;54760;47.490;19.030;2023-04-03T06:22:37;100099.66;;;10.76;44.64
67980;BME280;54760;47.490;19.030;2023-04-03T06:25:03;100094.63;;;11.34;44.52
67980;BME280;54760;47.490;19.030;2023-04-03T06:27:28;100095.38;;;11.90;42.56
67980;BME280;54760;47.490;19.030;2023-04-03T06:29:54;100093.16;;;12.78;40.36
67980;BME280;54760;47.490;19.030;2023-04-03T06:32:19;100099.06;;;12.15;41.31
67980;BME280;54760;47.490;19.030;2023-04-03T06:34:45;100104.87;;;11.29;42.69
67980;BME280;54760;47.490;19.030;2023-04-03T06:37:22;100105.16;;;10.29;45.04
67980;BME280;54760;47.490;19.030;2023-04-03T06:39:47;100107.31;;;9.91;45.93
67980;BME280;54760;47.490;19.030;2023-04-03T06:42:13;100114.13;;;9.49;47.48
67980;BME280;54760;47.490;19.030;2023-04-03T06:44:39;100121.94;;;9.78;46.75
67980;BME280;54760;47.490;19.030;2023-04-03T06:47:05;100111.87;;;10.71;45.16
67980;BME280;54760;47.490;19.030;2023-04-03T06:49:31;100115.56;;;13.06;40.21
67980;BME280;54760;47.490;19.030;2023-04-03T06:51:57;100109.91;;;14.05;37.16
67980;BME280;54760;47.490;19.030;2023-04-03T06:54:22;100112.88;;;12.61;40.30
67980;BME280;54760;47.490;19.030;2023-04-03T06:56:48;100113.28;;;12.43;40.63
67980;BME280;54760;47.490;19.030;2023-04-03T06:59:14;100120.28;;;11.79;41.59
67980;BME280;54760;47.490;19.030;2023-04-03T07:01:40;100134.72;;;11.44;42.46
67980;BME280;54760;47.490;19.030;2023-04-03T07:04:10;100121.34;;;10.43;44.55
67980;BME280;54760;47.490;19.030;2023-04-03T07:06:36;100137.81;;;10.13;45.08
67980;BME280;54760;47.490;19.030;2023-04-03T07:09:02;100141.38;;;9.83;46.46
67980;BME280;54760;47.490;19.030;2023-04-03T07:11:28;100148.84;;;9.19;47.92
67980;BME280;54760;47.490;19.030;2023-04-03T07:13:53;100146.81;;;9.87;46.27
67980;BME280;54760;47.490;19.030;2023-04-03T07:16:19;100150.56;;;9.70;46.99
67980;BME280;54760;47.490;19.030;2023-04-03T07:18:45;100149.66;;;9.49;47.14
67980;BME280;54760;47.490;19.030;2023-04-03T07:21:12;100161.25;;;9.27;47.37
67980;BME280;54760;47.490;19.030;2023-04-03T07:23:38;100147.03;;;9.42;46.95
67980;BME280;54760;47.490;19.030;2023-04-03T07:26:04;100151.88;;;8.90;48.40
67980;BME280;54760;47.490;19.030;2023-04-03T07:28:29;100149.16;;;9.28;48.05
67980;BME280;54760;47.490;19.030;2023-04-03T07:31:03;100155.00;;;9.26;47.36
67980;BME280;54760;47.490;19.030;2023-04-03T07:33:31;100160.97;;;9.14;47.32
67980;BME280;54760;47.490;19.030;2023-04-03T07:35:57;100153.09;;;9.57;46.83
67980;BME280;54760;47.490;19.030;2023-04-03T07:38:22;100160.75;;;9.35;47.04
67980;BME280;54760;47.490;19.030;2023-04-03T07:40:49;100158.56;;;9.84;46.09
67980;BME280;54760;47.490;19.030;2023-04-03T07:43:16;100154.06;;;9.70;46.43
67980;BME280;54760;47.490;19.030;2023-04-03T07:45:42;100165.56;;;9.24;46.98
67980;BME280;54760;47.490;19.030;2023-04-03T07:48:11;100164.59;;;9.41;46.63
67980;BME280;54760;47.490;19.030;2023-04-03T07:50:40;100163.03;;;9.71;45.95
67980;BME280;54760;47.490;19.030;2023-04-03T07:53:06;100173.06;;;9.50;46.48
67980;BME280;54760;47.490;19.030;2023-04-03T07:55:33;100172.41;;;9.39;46.60
67980;BME280;54760;47.490;19.030;2023-04-03T07:57:58;100175.06;;;9.46;46.30
67980;BME280;54760;47.490;19.030;2023-04-03T08:00:24;100173.78;;;9.21;47.00
67980;BME280;54760;47.490;19.030;2023-04-03T08:02:50;100183.06;;;8.93;47.72
67980;BME280;54760;47.490;19.030;2023-04-03T08:05:19;100182.53;;;9.05;47.30
67980;BME280;54760;47.490;19.030;2023-04-03T08:07:45;100175.97;;;9.36;46.37
67980;BME280;54760;47.490;19.030;2023-04-03T08:10:11;100184.56;;;9.35;46.53
67980;BME280;54760;47.490;19.030;2023-04-03T08:12:37;100183.44;;;9.32;46.91
67980;BME280;54760;47.490;19.030;2023-04-03T08:15:03;100173.06;;;9.81;45.88
67980;BME280;54760;47.490;19.030;2023-04-03T08:17:29;100180.91;;;9.79;45.96
67980;BME280;54760;47.490;19.030;2023-04-03T08:19:54;100187.56;;;9.47;46.48
67980;BME280;54760;47.490;19.030;2023-04-03T08:22:31;100178.47;;;9.20;46.48
67980;BME280;54760;47.490;19.030;2023-04-03T08:24:56;100185.09;;;9.23;46.32
67980;BME280;54760;47.490;19.030;2023-04-03T08:27:22;100181.47;;;9.63;45.46
67980;BME280;54760;47.490;19.030;2023-04-03T08:29:47;100184.72;;;9.85;44.80
67980;BME280;54760;47.490;19.030;2023-04-03T08:32:12;100190.56;;;9.56;44.92
67980;BME280;54760;47.490;19.030;2023-04-03T08:34:38;100185.69;;;9.71;45.01
67980;BME280;54760;47.490;19.030;2023-04-03T08:37:05;100184.47;;;10.02;44.40
67980;BME280;54760;47.490;19.030;2023-04-03T08:39:31;100181.94;;;10.19;43.83
67980;BME280;54760;47.490;19.030;2023-04-03T08:41:58;100188.81;;;9.70;43.95
67980;BME280;54760;47.490;19.030;2023-04-03T08:44:39;100186.88;;;9.97;43.23
67980;BME280;54760;47.490;19.030;2023-04-03T08:49:43;100187.91;;;9.80;43.86
67980;BME280;54760;47.490;19.030;2023-04-03T08:52:17;100182.84;;;10.09;42.99
67980;BME280;54760;47.490;19.030;2023-04-03T08:54:51;100183.69;;;10.02;42.57
67980;BME280;54760;47.490;19.030;2023-04-03T08:57:29;100183.91;;;10.41;41.68
67980;BME280;54760;47.490;19.030;2023-04-03T08:59:58;100174.84;;;10.71;41.06
67980;BME280;54760;47.490;19.030;2023-04-03T09:02:41;100178.28;;;10.99;39.80
67980;BME280;54760;47.490;19.030;2023-04-03T09:08:21;100179.34;;;11.24;39.17
67980;BME280;54760;47.490;19.030;2023-04-03T09:10:48;100182.66;;;11.36;38.91
67980;BME280;54760;47.490;19.030;2023-04-03T09:14:05;100176.75;;;11.96;37.73
67980;BME280;54760;47.490;19.030;2023-04-03T09:21:39;100186.72;;;12.06;37.12
67980;BME280;54760;47.490;19.030;2023-04-03T09:24:10;100185.34;;;11.79;37.99
67980;BME280;54760;47.490;19.030;2023-04-03T09:26:42;100178.53;;;13.00;35.22
67980;BME280;54760;47.490;19.030;2023-04-03T09:29:14;100183.72;;;13.27;35.18
67980;BME280;54760;47.490;19.030;2023-04-03T09:32:07;100186.09;;;13.82;33.90
67980;BME280;54760;47.490;19.030;2023-04-03T09:34:37;100177.06;;;15.27;31.16
67980;BME280;54760;47.490;19.030;2023-04-03T09:37:07;100183.91;;;15.78;30.17
67980;BME280;54760;47.490;19.030;2023-04-03T09:39:51;100178.12;;;16.25;29.96
67980;BME280;54760;47.490;19.030;2023-04-03T09:42:20;100177.97;;;15.45;31.13
67980;BME280;54760;47.490;19.030;2023-04-03T09:47:29;100144.12;;;16.56;30.27
67980;BME280;54760;47.490;19.030;2023-04-03T09:52:39;100169.91;;;14.60;32.55
67980;BME280;54760;47.490;19.030;2023-04-03T09:55:08;100178.50;;;14.12;33.16
67980;BME280;54760;47.490;19.030;2023-04-03T09:57:38;100164.75;;;16.73;29.29
67980;BME280;54760;47.490;19.030;2023-04-03T10:00:06;100154.63;;;16.79;30.08
67980;BME280;54760;47.490;19.030;2023-04-03T10:02:44;100133.56;;;19.54;25.82
67980;BME280;54760;47.490;19.030;2023-04-03T10:08:11;100161.44;;;15.67;30.58
67980;BME280;54760;47.490;19.030;2023-04-03T10:10:47;100177.72;;;13.32;34.35
67980;BME280;54760;47.490;19.030;2023-04-03T10:13:18;100176.59;;;12.68;35.88
67980;BME280;54760;47.490;19.030;2023-04-03T10:16:16;100180.22;;;12.17;36.60
67980;BME280;54760;47.490;19.030;2023-04-03T10:24:18;100183.97;;;11.08;39.39
67980;BME280;54760;47.490;19.030;2023-04-03T10:26:52;100180.59;;;11.00;39.70
67980;BME280;54760;47.490;19.030;2023-04-03T10:34:43;100190.19;;;11.32;39.26
67980;BME280;54760;47.490;19.030;2023-04-03T10:42:50;100178.69;;;10.51;40.91
67980;BME280;54760;47.490;19.030;2023-04-03T10:48:07;100173.88;;;10.81;40.55
67980;BME280;54760;47.490;19.030;2023-04-03T10:53:34;100170.62;;;11.29;39.26
67980;BME280;54760;47.490;19.030;2023-04-03T10:56:31;100172.44;;;10.97;40.18
67980;BME280;54760;47.490;19.030;2023-04-03T10:59:13;100173.16;;;10.77;40.24
67980;BME280;54760;47.490;19.030;2023-04-03T11:01:42;100174.19;;;10.64;39.65
67980;BME280;54760;47.490;19.030;2023-04-03T11:04:11;100175.47;;;10.56;39.87
67980;BME280;54760;47.490;19.030;2023-04-03T11:11:47;100178.63;;;10.31;40.32
67980;BME280;54760;47.490;19.030;2023-04-03T11:14:27;100177.91;;;10.27;40.63
67980;BME280;54760;47.490;19.030;2023-04-03T11:17:01;100170.25;;;10.41;39.87
67980;BME280;54760;47.490;19.030;2023-04-03T11:22:39;100161.31;;;10.37;39.82
67980;BME280;54760;47.490;19.030;2023-04-03T11:27:44;100159.53;;;10.51;39.79
67980;BME280;54760;47.490;19.030;2023-04-03T11:30:18;100160.38;;;10.71;39.48
67980;BME280;54760;47.490;19.030;2023-04-03T11:35:38;100143.88;;;11.17;38.37
67980;BME280;54760;47.490;19.030;2023-04-03T11:38:18;100140.44;;;11.13;37.88
67980;BME280;54760;47.490;19.030;2023-04-03T11:40:46;100135.22;;;11.39;37.85
67980;BME280;54760;47.490;19.030;2023-04-03T11:43:27;100136.28;;;11.45;37.17
67980;BME280;54760;47.490;19.030;2023-04-03T11:46:04;100142.69;;;11.58;37.01
67980;BME280;54760;47.490;19.030;2023-04-03T11:53:53;100137.88;;;10.83;38.33
67980;BME280;54760;47.490;19.030;2023-04-03T12:04:10;100146.94;;;11.00;38.55
67980;BME280;54760;47.490;19.030;2023-04-03T12:11:46;100131.16;;;11.07;38.19
67980;BME280;54760;47.490;19.030;2023-04-03T12:14:16;100135.63;;;10.78;38.27
67980;BME280;54760;47.490;19.030;2023-04-03T12:16:46;100133.03;;;11.10;38.46
67980;BME280;54760;47.490;19.030;2023-04-03T12:24:41;100138.00;;;10.76;38.69
67980;BME280;54760;47.490;19.030;2023-04-03T12:27:23;100133.34;;;10.73;39.27
67980;BME280;54760;47.490;19.030;2023-04-03T12:30:13;100126.22;;;10.79;38.86
67980;BME280;54760;47.490;19.030;2023-04-03T12:40:21;100123.06;;;11.00;38.17
67980;BME280;54760;47.490;19.030;2023-04-03T12:45:49;100120.81;;;11.15;37.44
67980;BME280;54760;47.490;19.030;2023-04-03T12:48:21;100111.28;;;11.03;37.88
67980;BME280;54760;47.490;19.030;2023-04-03T12:50:49;100115.28;;;11.38;38.00
67980;BME280;54760;47.490;19.030;2023-04-03T12:53:23;100120.81;;;11.35;37.53
67980;BME280;54760;47.490;19.030;2023-04-03T12:55:54;100108.88;;;11.45;37.41
67980;BME280;54760;47.490;19.030;2023-04-03T12:58:28;100113.25;;;11.22;37.83
67980;BME280;54760;47.490;19.030;2023-04-03T13:01:04;100110.88;;;11.60;36.85
67980;BME280;54760;47.490;19.030;2023-04-03T13:03:38;100104.19;;;11.97;36.23
67980;BME280;54760;47.490;19.030;2023-04-03T13:06:04;100103.06;;;11.59;36.87
67980;BME280;54760;47.490;19.030;2023-04-03T13:08:31;100098.41;;;11.40;37.66
67980;BME280;54760;47.490;19.030;2023-04-03T13:11:09;100098.41;;;11.40;37.43
67980;BME280;54760;47.490;19.030;2023-04-03T13:13:37;100092.44;;;11.05;37.96
67980;BME280;54760;47.490;19.030;2023-04-03T13:16:10;100094.53;;;11.37;37.32
67980;BME280;54760;47.490;19.030;2023-04-03T13:18:37;100092.88;;;11.43;37.34
67980;BME280;54760;47.490;19.030;2023-04-03T13:21:11;100092.38;;;12.00;36.31
67980;BME280;54760;47.490;19.030;2023-04-03T13:23:40;100088.06;;;11.47;36.94
67980;BME280;54760;47.490;19.030;2023-04-03T13:26:08;100088.88;;;11.08;37.89
67980;BME280;54760;47.490;19.030;2023-04-03T13:28:35;100080.34;;;11.42;37.10
67980;BME280;54760;47.490;19.030;2023-04-03T13:31:17;100078.72;;;11.45;37.22
67980;BME280;54760;47.490;19.030;2023-04-03T13:36:27;100087.56;;;12.04;35.87
67980;BME280;54760;47.490;19.030;2023-04-03T13:39:22;100081.75;;;11.86;36.37
67980;BME280;54760;47.490;19.030;2023-04-03T13:41:58;100079.16;;;11.79;36.19
67980;BME280;54760;47.490;19.030;2023-04-03T13:44:32;100080.34;;;11.78;36.33
67980;BME280;54760;47.490;19.030;2023-04-03T13:47:00;100083.81;;;12.14;36.45
67980;BME280;54760;47.490;19.030;2023-04-03T13:51:56;100079.41;;;11.49;36.97
67980;BME280;54760;47.490;19.030;2023-04-03T13:54:24;100075.22;;;11.80;36.49
67980;BME280;54760;47.490;19.030;2023-04-03T13:56:55;100067.44;;;11.59;36.92
67980;BME280;54760;47.490;19.030;2023-04-03T13:59:29;100059.94;;;11.63;36.98
67980;BME280;54760;47.490;19.030;2023-04-03T14:04:29;100057.41;;;11.52;37.25
67980;BME280;54760;47.490;19.030;2023-04-03T14:06:55;100060.81;;;11.20;37.29
67980;BME280;54760;47.490;19.030;2023-04-03T14:09:24;100054.72;;;11.33;36.94
67980;BME280;54760;47.490;19.030;2023-04-03T14:11:53;100050.16;;;11.62;36.36
67980;BME280;54760;47.490;19.030;2023-04-03T14:14:22;100052.25;;;11.38;36.86
67980;BME280;54760;47.490;19.030;2023-04-03T14:16:55;100057.09;;;11.30;37.01
67980;BME280;54760;47.490;19.030;2023-04-03T14:19:30;100054.03;;;11.28;37.28
67980;BME280;54760;47.490;19.030;2023-04-03T14:21:56;100050.97;;;11.95;36.29
67980;BME280;54760;47.490;19.030;2023-04-03T14:24:23;100053.63;;;11.82;36.77
67980;BME280;54760;47.490;19.030;2023-04-03T14:26:50;100044.03;;;11.38;36.71
67980;BME280;54760;47.490;19.030;2023-04-03T14:29:16;100053.94;;;11.32;37.38
67980;BME280;54760;47.490;19.030;2023-04-03T14:31:44;100044.84;;;11.19;36.97
67980;BME280;54760;47.490;19.030;2023-04-03T14:34:11;100052.91;;;11.06;37.75
67980;BME280;54760;47.490;19.030;2023-04-03T14:36:38;100052.41;;;10.92;37.90
67980;BME280;54760;47.490;19.030;2023-04-03T14:39:06;100060.00;;;11.04;37.84
67980;BME280;54760;47.490;19.030;2023-04-03T14:41:32;100049.25;;;10.93;38.16